sensor_id;sensor_type;location;lat;lon;timestamp;temperature;humidity
22416;DHT22;12204;50.600;4.608;2023-08-06T00:02:04;24.20;76.50
22416;DHT22;12204;50.600;4.608;2023-08-06T00:07:08;24.10;76.50
22416;DHT22;12204;50.600;4.608;2023-08-06T00:12:11;24.20;76.70
22416;DHT22;12204;50.600;4.608;2023-08-06T00:17:16;24.10;76.50
22416;DHT22;12204;50.600;4.608;2023-08-06T00:22:20;24.10;76.40
22416;DHT22;12204;50.600;4.608;2023-08-06T00:27:23;24.10;76.70
22416;DHT22;12204;50.600;4.608;2023-08-06T00:32:28;24.10;76.50
22416;DHT22;12204;50.600;4.608;2023-08-06T00:37:32;24.10;76.60
22416;DHT22;12204;50.600;4.608;2023-08-06T00:42:36;24.10;76.80
22416;DHT22;12204;50.600;4.608;2023-08-06T00:47:41;24.10;76.70
22416;DHT22;12204;50.600;4.608;2023-08-06T00:52:45;24.10;76.60
22416;DHT22;12204;50.600;4.608;2023-08-06T00:57:49;24.10;76.80
22416;DHT22;12204;50.600;4.608;2023-08-06T01:02:56;24.10;76.80
22416;DHT22;12204;50.600;4.608;2023-08-06T01:08:12;24.10;76.80
22416;DHT22;12204;50.600;4.608;2023-08-06T01:13:32;24.10;76.70
22416;DHT22;12204;50.600;4.608;2023-08-06T01:18:43;24.10;76.80
22416;DHT22;12204;50.600;4.608;2023-08-06T01:23:49;24.10;76.70
22416;DHT22;12204;50.600;4.608;2023-08-06T01:28:58;24.00;76.70
22416;DHT22;12204;50.600;4.608;2023-08-06T01:34:09;24.10;76.90
22416;DHT22;12204;50.600;4.608;2023-08-06T01:39:18;24.10;76.80
22416;DHT22;12204;50.600;4.608;2023-08-06T01:44:23;24.10;76.80
22416;DHT22;12204;50.600;4.608;2023-08-06T01:49:27;24.00;76.80
22416;DHT22;12204;50.600;4.608;2023-08-06T01:54:32;24.10;76.80
22416;DHT22;12204;50.600;4.608;2023-08-06T01:59:35;24.10;76.70
22416;DHT22;12204;50.600;4.608;2023-08-06T02:04:39;24.10;76.60
22416;DHT22;12204;50.600;4.608;2023-08-06T02:09:44;24.10;76.50
22416;DHT22;12204;50.600;4.608;2023-08-06T02:14:47;24.00;76.80
22416;DHT22;12204;50.600;4.608;2023-08-06T02:19:50;24.00;76.90
22416;DHT22;12204;50.600;4.608;2023-08-06T02:24:55;24.00;76.70
22416;DHT22;12204;50.600;4.608;2023-08-06T02:29:59;24.10;76.50
22416;DHT22;12204;50.600;4.608;2023-08-06T02:35:02;24.10;76.30
22416;DHT22;12204;50.600;4.608;2023-08-06T02:40:09;24.10;76.20
22416;DHT22;12204;50.600;4.608;2023-08-06T02:45:13;24.10;76.40
22416;DHT22;12204;50.600;4.608;2023-08-06T02:50:17;24.10;76.40
22416;DHT22;12204;50.600;4.608;2023-08-06T02:55:21;24.10;76.30
22416;DHT22;12204;50.600;4.608;2023-08-06T03:00:25;24.10;76.40
22416;DHT22;12204;50.600;4.608;2023-08-06T03:05:29;24.10;76.40
22416;DHT22;12204;50.600;4.608;2023-08-06T03:10:35;24.10;76.40
22416;DHT22;12204;50.600;4.608;2023-08-06T03:15:39;24.10;76.40
22416;DHT22;12204;50.600;4.608;2023-08-06T03:20:46;24.00;76.40
22416;DHT22;12204;50.600;4.608;2023-08-06T03:25:52;24.00;76.30
22416;DHT22;12204;50.600;4.608;2023-08-06T03:30:59;24.00;76.30
22416;DHT22;12204;50.600;4.608;2023-08-06T03:36:09;24.00;76.20
22416;DHT22;12204;50.600;4.608;2023-08-06T03:41:14;24.00;75.90
22416;DHT22;12204;50.600;4.608;2023-08-06T03:46:19;24.00;75.80
22416;DHT22;12204;50.600;4.608;2023-08-06T03:51:22;24.00;75.80
22416;DHT22;12204;50.600;4.608;2023-08-06T03:56:28;24.00;75.90
22416;DHT22;12204;50.600;4.608;2023-08-06T04:01:32;24.00;76.40
22416;DHT22;12204;50.600;4.608;2023-08-06T04:06:35;24.00;76.20
22416;DHT22;12204;50.600;4.608;2023-08-06T04:11:40;24.00;76.10
22416;DHT22;12204;50.600;4.608;2023-08-06T04:16:44;24.00;75.90
22416;DHT22;12204;50.600;4.608;2023-08-06T04:21:48;24.00;75.80
22416;DHT22;12204;50.600;4.608;2023-08-06T04:26:54;24.00;75.60
22416;DHT22;12204;50.600;4.608;2023-08-06T04:31:58;24.00;75.80
22416;DHT22;12204;50.600;4.608;2023-08-06T04:37:03;24.00;75.30
22416;DHT22;12204;50.600;4.608;2023-08-06T04:42:08;24.00;74.40
22416;DHT22;12204;50.600;4.608;2023-08-06T04:47:12;24.00;74.40
22416;DHT22;12204;50.600;4.608;2023-08-06T04:52:16;24.00;74.30
22416;DHT22;12204;50.600;4.608;2023-08-06T04:57:21;24.00;74.30
22416;DHT22;12204;50.600;4.608;2023-08-06T05:02:25;24.00;74.60
22416;DHT22;12204;50.600;4.608;2023-08-06T05:07:28;24.00;75.00
22416;DHT22;12204;50.600;4.608;2023-08-06T05:12:33;24.00;74.70
22416;DHT22;12204;50.600;4.608;2023-08-06T05:17:36;24.00;74.80
22416;DHT22;12204;50.600;4.608;2023-08-06T05:22:40;24.00;74.20
22416;DHT22;12204;50.600;4.608;2023-08-06T05:27:45;24.00;74.20
22416;DHT22;12204;50.600;4.608;2023-08-06T05:32:48;24.00;74.20
22416;DHT22;12204;50.600;4.608;2023-08-06T05:37:52;24.00;74.50
22416;DHT22;12204;50.600;4.608;2023-08-06T05:42:57;23.90;75.00
22416;DHT22;12204;50.600;4.608;2023-08-06T05:48:00;23.90;74.30
22416;DHT22;12204;50.600;4.608;2023-08-06T05:53:04;23.90;74.10
22416;DHT22;12204;50.600;4.608;2023-08-06T05:58:09;23.90;74.10
22416;DHT22;12204;50.600;4.608;2023-08-06T06:03:12;23.90;74.60
22416;DHT22;12204;50.600;4.608;2023-08-06T06:08:16;23.90;74.10
22416;DHT22;12204;50.600;4.608;2023-08-06T06:13:21;23.90;74.50
22416;DHT22;12204;50.600;4.608;2023-08-06T06:18:24;23.90;74.40
22416;DHT22;12204;50.600;4.608;2023-08-06T06:23:28;23.90;74.30
22416;DHT22;12204;50.600;4.608;2023-08-06T06:28:32;23.90;75.00
22416;DHT22;12204;50.600;4.608;2023-08-06T06:33:36;23.90;74.80
22416;DHT22;12204;50.600;4.608;2023-08-06T06:38:40;23.90;74.10
22416;DHT22;12204;50.600;4.608;2023-08-06T06:43:44;23.90;74.10
22416;DHT22;12204;50.600;4.608;2023-08-06T06:48:48;23.90;74.20
22416;DHT22;12204;50.600;4.608;2023-08-06T06:53:51;23.90;75.50
22416;DHT22;12204;50.600;4.608;2023-08-06T06:58:56;23.90;72.40
22416;DHT22;12204;50.600;4.608;2023-08-06T07:03:59;23.70;70.80
22416;DHT22;12204;50.600;4.608;2023-08-06T07:09:06;23.70;70.40
22416;DHT22;12204;50.600;4.608;2023-08-06T07:14:11;23.60;70.10
22416;DHT22;12204;50.600;4.608;2023-08-06T07:19:16;23.50;69.50
22416;DHT22;12204;50.600;4.608;2023-08-06T07:24:19;23.40;69.50
22416;DHT22;12204;50.600;4.608;2023-08-06T07:29:24;23.40;69.40
22416;DHT22;12204;50.600;4.608;2023-08-06T07:34:28;23.30;69.70
22416;DHT22;12204;50.600;4.608;2023-08-06T07:39:31;23.20;69.10
22416;DHT22;12204;50.600;4.608;2023-08-06T07:44:36;23.20;69.30
22416;DHT22;12204;50.600;4.608;2023-08-06T07:49:42;23.10;69.70
22416;DHT22;12204;50.600;4.608;2023-08-06T07:54:45;23.10;70.40
22416;DHT22;12204;50.600;4.608;2023-08-06T07:59:50;23.10;70.10
22416;DHT22;12204;50.600;4.608;2023-08-06T08:04:55;23.00;69.30
22416;DHT22;12204;50.600;4.608;2023-08-06T08:09:58;23.00;68.50
22416;DHT22;12204;50.600;4.608;2023-08-06T08:15:04;23.00;68.60
22416;DHT22;12204;50.600;4.608;2023-08-06T08:20:09;22.90;68.70
22416;DHT22;12204;50.600;4.608;2023-08-06T08:25:15;22.90;68.70
22416;DHT22;12204;50.600;4.608;2023-08-06T08:30:20;22.90;68.60
22416;DHT22;12204;50.600;4.608;2023-08-06T08:35:24;22.80;68.30
22416;DHT22;12204;50.600;4.608;2023-08-06T08:40:31;22.80;68.30
22416;DHT22;12204;50.600;4.608;2023-08-06T08:45:39;22.80;68.00
22416;DHT22;12204;50.600;4.608;2023-08-06T08:50:44;22.80;68.20
22416;DHT22;12204;50.600;4.608;2023-08-06T08:55:49;22.80;68.00
22416;DHT22;12204;50.600;4.608;2023-08-06T09:00:54;22.80;69.10
22416;DHT22;12204;50.600;4.608;2023-08-06T09:05:58;22.70;68.40
22416;DHT22;12204;50.600;4.608;2023-08-06T09:11:03;22.70;68.30
22416;DHT22;12204;50.600;4.608;2023-08-06T09:16:09;22.70;68.20
22416;DHT22;12204;50.600;4.608;2023-08-06T09:21:15;22.70;68.50
22416;DHT22;12204;50.600;4.608;2023-08-06T09:26:19;22.70;69.00
22416;DHT22;12204;50.600;4.608;2023-08-06T09:31:24;22.70;69.80
22416;DHT22;12204;50.600;4.608;2023-08-06T09:36:27;22.70;70.80
22416;DHT22;12204;50.600;4.608;2023-08-06T09:41:30;22.60;70.10
22416;DHT22;12204;50.600;4.608;2023-08-06T09:46:36;22.60;70.50
22416;DHT22;12204;50.600;4.608;2023-08-06T09:51:39;22.60;70.30
22416;DHT22;12204;50.600;4.608;2023-08-06T09:56:44;22.60;70.00
22416;DHT22;12204;50.600;4.608;2023-08-06T10:01:49;22.60;70.40
22416;DHT22;12204;50.600;4.608;2023-08-06T10:06:54;22.60;70.10
22416;DHT22;12204;50.600;4.608;2023-08-06T10:11:58;22.50;70.20
22416;DHT22;12204;50.600;4.608;2023-08-06T10:17:05;22.50;71.00
22416;DHT22;12204;50.600;4.608;2023-08-06T10:22:09;22.40;70.40
22416;DHT22;12204;50.600;4.608;2023-08-06T10:27:20;22.40;70.60
22416;DHT22;12204;50.600;4.608;2023-08-06T10:32:47;22.40;71.00
22416;DHT22;12204;50.600;4.608;2023-08-06T10:37:52;22.50;72.10
22416;DHT22;12204;50.600;4.608;2023-08-06T10:42:56;22.50;72.60
22416;DHT22;12204;50.600;4.608;2023-08-06T10:48:04;22.60;74.40
22416;DHT22;12204;50.600;4.608;2023-08-06T10:53:08;22.70;75.40
22416;DHT22;12204;50.600;4.608;2023-08-06T10:58:15;22.70;75.70
22416;DHT22;12204;50.600;4.608;2023-08-06T11:03:20;22.80;75.50
22416;DHT22;12204;50.600;4.608;2023-08-06T11:08:25;22.80;75.20
22416;DHT22;12204;50.600;4.608;2023-08-06T11:13:29;22.80;74.40
22416;DHT22;12204;50.600;4.608;2023-08-06T11:18:35;22.80;74.00
22416;DHT22;12204;50.600;4.608;2023-08-06T11:23:39;22.90;74.20
22416;DHT22;12204;50.600;4.608;2023-08-06T11:28:43;22.90;74.00
22416;DHT22;12204;50.600;4.608;2023-08-06T11:33:49;22.90;73.40
22416;DHT22;12204;50.600;4.608;2023-08-06T11:38:53;22.90;73.10
22416;DHT22;12204;50.600;4.608;2023-08-06T11:43:56;23.00;72.60
22416;DHT22;12204;50.600;4.608;2023-08-06T11:49:01;23.00;72.00
22416;DHT22;12204;50.600;4.608;2023-08-06T11:54:05;23.00;71.40
22416;DHT22;12204;50.600;4.608;2023-08-06T11:59:09;23.00;71.40
22416;DHT22;12204;50.600;4.608;2023-08-06T12:04:14;23.00;71.50
22416;DHT22;12204;50.600;4.608;2023-08-06T12:09:17;23.10;71.60
22416;DHT22;12204;50.600;4.608;2023-08-06T12:14:21;23.10;71.60
22416;DHT22;12204;50.600;4.608;2023-08-06T12:19:25;23.10;71.70
22416;DHT22;12204;50.600;4.608;2023-08-06T12:24:29;23.10;72.50
22416;DHT22;12204;50.600;4.608;2023-08-06T12:29:33;23.10;72.00
22416;DHT22;12204;50.600;4.608;2023-08-06T12:34:39;23.10;72.10
22416;DHT22;12204;50.600;4.608;2023-08-06T12:39:54;23.10;72.30
22416;DHT22;12204;50.600;4.608;2023-08-06T12:44:58;23.20;72.80
22416;DHT22;12204;50.600;4.608;2023-08-06T12:50:04;23.20;72.60
22416;DHT22;12204;50.600;4.608;2023-08-06T12:55:10;23.20;72.50
22416;DHT22;12204;50.600;4.608;2023-08-06T13:00:13;23.30;72.40
22416;DHT22;12204;50.600;4.608;2023-08-06T13:05:18;23.20;72.20
22416;DHT22;12204;50.600;4.608;2023-08-06T13:10:23;23.20;72.10
22416;DHT22;12204;50.600;4.608;2023-08-06T13:15:27;23.20;72.00
22416;DHT22;12204;50.600;4.608;2023-08-06T13:20:32;23.20;72.00
22416;DHT22;12204;50.600;4.608;2023-08-06T13:25:36;23.20;71.90
22416;DHT22;12204;50.600;4.608;2023-08-06T13:30:40;23.20;71.90
22416;DHT22;12204;50.600;4.608;2023-08-06T13:35:45;23.20;71.90
22416;DHT22;12204;50.600;4.608;2023-08-06T13:40:49;23.20;71.90
22416;DHT22;12204;50.600;4.608;2023-08-06T13:45:52;23.20;71.80
22416;DHT22;12204;50.600;4.608;2023-08-06T13:50:57;23.20;71.80
22416;DHT22;12204;50.600;4.608;2023-08-06T13:56:01;23.20;71.70
22416;DHT22;12204;50.600;4.608;2023-08-06T14:01:05;23.20;71.60
22416;DHT22;12204;50.600;4.608;2023-08-06T14:06:10;23.20;71.60
22416;DHT22;12204;50.600;4.608;2023-08-06T14:11:13;23.20;71.50
22416;DHT22;12204;50.600;4.608;2023-08-06T14:16:17;23.20;71.60
22416;DHT22;12204;50.600;4.608;2023-08-06T14:21:22;23.20;71.50
22416;DHT22;12204;50.600;4.608;2023-08-06T14:26:25;23.20;71.60
22416;DHT22;12204;50.600;4.608;2023-08-06T14:31:29;23.20;71.50
22416;DHT22;12204;50.600;4.608;2023-08-06T14:36:34;23.20;71.60
22416;DHT22;12204;50.600;4.608;2023-08-06T14:41:38;23.20;71.60
22416;DHT22;12204;50.600;4.608;2023-08-06T14:46:41;23.20;71.70
22416;DHT22;12204;50.600;4.608;2023-08-06T14:51:46;23.10;71.60
22416;DHT22;12204;50.600;4.608;2023-08-06T14:56:50;23.20;71.70
22416;DHT22;12204;50.600;4.608;2023-08-06T15:01:53;23.10;71.60
22416;DHT22;12204;50.600;4.608;2023-08-06T15:06:58;23.10;71.60
22416;DHT22;12204;50.600;4.608;2023-08-06T15:12:02;23.10;71.50
22416;DHT22;12204;50.600;4.608;2023-08-06T15:17:06;23.10;71.40
22416;DHT22;12204;50.600;4.608;2023-08-06T15:22:11;23.10;71.30
22416;DHT22;12204;50.600;4.608;2023-08-06T15:27:15;23.10;71.30
22416;DHT22;12204;50.600;4.608;2023-08-06T15:32:19;23.10;71.20
22416;DHT22;12204;50.600;4.608;2023-08-06T15:37:25;23.10;71.20
22416;DHT22;12204;50.600;4.608;2023-08-06T15:42:28;23.10;71.20
22416;DHT22;12204;50.600;4.608;2023-08-06T15:47:32;23.10;71.10
22416;DHT22;12204;50.600;4.608;2023-08-06T15:52:42;23.10;71.00
22416;DHT22;12204;50.600;4.608;2023-08-06T15:57:45;23.20;71.20
22416;DHT22;12204;50.600;4.608;2023-08-06T16:02:49;23.20;71.00
22416;DHT22;12204;50.600;4.608;2023-08-06T16:07:54;23.20;71.00
22416;DHT22;12204;50.600;4.608;2023-08-06T16:12:58;23.30;71.10
22416;DHT22;12204;50.600;4.608;2023-08-06T16:18:01;23.30;71.10
22416;DHT22;12204;50.600;4.608;2023-08-06T16:23:06;23.20;71.00
22416;DHT22;12204;50.600;4.608;2023-08-06T16:28:10;23.20;71.00
22416;DHT22;12204;50.600;4.608;2023-08-06T16:33:14;23.30;72.00
22416;DHT22;12204;50.600;4.608;2023-08-06T16:38:19;23.30;71.50
22416;DHT22;12204;50.600;4.608;2023-08-06T16:43:23;23.30;71.10
22416;DHT22;12204;50.600;4.608;2023-08-06T16:48:27;23.20;71.00
22416;DHT22;12204;50.600;4.608;2023-08-06T16:53:33;23.10;70.00
22416;DHT22;12204;50.600;4.608;2023-08-06T16:58:37;23.10;69.10
22416;DHT22;12204;50.600;4.608;2023-08-06T17:03:40;23.20;68.20
22416;DHT22;12204;50.600;4.608;2023-08-06T17:08:45;23.30;67.90
22416;DHT22;12204;50.600;4.608;2023-08-06T17:13:49;23.30;66.20
22416;DHT22;12204;50.600;4.608;2023-08-06T17:18:53;23.30;65.70
22416;DHT22;12204;50.600;4.608;2023-08-06T17:23:58;23.30;64.90
22416;DHT22;12204;50.600;4.608;2023-08-06T17:29:01;23.20;64.40
22416;DHT22;12204;50.600;4.608;2023-08-06T17:34:05;23.20;64.70
22416;DHT22;12204;50.600;4.608;2023-08-06T17:39:09;23.20;64.30
22416;DHT22;12204;50.600;4.608;2023-08-06T17:44:13;23.10;64.40
22416;DHT22;12204;50.600;4.608;2023-08-06T17:49:17;23.10;64.70
22416;DHT22;12204;50.600;4.608;2023-08-06T17:54:21;23.10;64.90
22416;DHT22;12204;50.600;4.608;2023-08-06T17:59:26;23.20;65.30
22416;DHT22;12204;50.600;4.608;2023-08-06T18:04:29;23.10;65.70
22416;DHT22;12204;50.600;4.608;2023-08-06T18:09:35;23.10;65.10
22416;DHT22;12204;50.600;4.608;2023-08-06T18:14:40;23.10;65.50
22416;DHT22;12204;50.600;4.608;2023-08-06T18:19:44;23.10;65.40
22416;DHT22;12204;50.600;4.608;2023-08-06T18:24:48;23.00;65.00
22416;DHT22;12204;50.600;4.608;2023-08-06T18:29:52;23.00;65.70
22416;DHT22;12204;50.600;4.608;2023-08-06T18:34:55;23.10;66.90
22416;DHT22;12204;50.600;4.608;2023-08-06T18:40:00;23.10;67.60
22416;DHT22;12204;50.600;4.608;2023-08-06T18:45:05;23.10;67.80
22416;DHT22;12204;50.600;4.608;2023-08-06T18:50:10;23.20;68.60
22416;DHT22;12204;50.600;4.608;2023-08-06T18:55:15;23.20;69.50
22416;DHT22;12204;50.600;4.608;2023-08-06T19:00:18;23.20;70.50
22416;DHT22;12204;50.600;4.608;2023-08-06T19:05:22;23.20;71.20
22416;DHT22;12204;50.600;4.608;2023-08-06T19:10:29;23.20;71.70
22416;DHT22;12204;50.600;4.608;2023-08-06T19:15:33;23.30;72.00
22416;DHT22;12204;50.600;4.608;2023-08-06T19:20:41;23.30;72.30
22416;DHT22;12204;50.600;4.608;2023-08-06T19:25:46;23.30;72.70
22416;DHT22;12204;50.600;4.608;2023-08-06T19:30:50;23.30;72.90
22416;DHT22;12204;50.600;4.608;2023-08-06T19:35:54;23.30;73.00
22416;DHT22;12204;50.600;4.608;2023-08-06T19:41:06;23.30;73.20
22416;DHT22;12204;50.600;4.608;2023-08-06T19:46:11;23.20;73.20
22416;DHT22;12204;50.600;4.608;2023-08-06T19:51:14;23.30;73.90
22416;DHT22;12204;50.600;4.608;2023-08-06T19:56:20;23.30;74.30
22416;DHT22;12204;50.600;4.608;2023-08-06T20:01:24;23.30;75.20
22416;DHT22;12204;50.600;4.608;2023-08-06T20:06:29;23.30;75.00
22416;DHT22;12204;50.600;4.608;2023-08-06T20:11:34;23.30;75.20
22416;DHT22;12204;50.600;4.608;2023-08-06T20:16:37;23.30;75.00
22416;DHT22;12204;50.600;4.608;2023-08-06T20:21:41;23.30;74.90
22416;DHT22;12204;50.600;4.608;2023-08-06T20:26:47;23.30;74.80
22416;DHT22;12204;50.600;4.608;2023-08-06T20:31:50;23.30;74.80
22416;DHT22;12204;50.600;4.608;2023-08-06T20:36:54;23.30;74.80
22416;DHT22;12204;50.600;4.608;2023-08-06T20:41:59;23.30;74.80
22416;DHT22;12204;50.600;4.608;2023-08-06T20:47:04;23.40;74.80
22416;DHT22;12204;50.600;4.608;2023-08-06T20:52:08;23.30;74.70
22416;DHT22;12204;50.600;4.608;2023-08-06T20:57:13;23.30;74.60
22416;DHT22;12204;50.600;4.608;2023-08-06T21:02:16;23.30;74.70
22416;DHT22;12204;50.600;4.608;2023-08-06T21:07:20;23.30;74.80
22416;DHT22;12204;50.600;4.608;2023-08-06T21:12:25;23.30;74.80
22416;DHT22;12204;50.600;4.608;2023-08-06T21:17:28;23.30;74.80
22416;DHT22;12204;50.600;4.608;2023-08-06T21:22:32;23.30;74.80
22416;DHT22;12204;50.600;4.608;2023-08-06T21:27:37;23.30;74.70
22416;DHT22;12204;50.600;4.608;2023-08-06T21:32:40;23.30;74.80
22416;DHT22;12204;50.600;4.608;2023-08-06T21:37:44;23.30;74.80
22416;DHT22;12204;50.600;4.608;2023-08-06T21:42:49;23.30;74.90
22416;DHT22;12204;50.600;4.608;2023-08-06T21:47:52;23.30;75.00
22416;DHT22;12204;50.600;4.608;2023-08-06T21:52:56;23.30;74.80
22416;DHT22;12204;50.600;4.608;2023-08-06T21:58:00;23.30;74.70
22416;DHT22;12204;50.600;4.608;2023-08-06T22:03:04;23.30;74.80
22416;DHT22;12204;50.600;4.608;2023-08-06T22:08:07;23.30;74.80
22416;DHT22;12204;50.600;4.608;2023-08-06T22:13:12;23.40;74.60
22416;DHT22;12204;50.600;4.608;2023-08-06T22:18:16;23.40;74.60
22416;DHT22;12204;50.600;4.608;2023-08-06T22:23:19;23.40;74.70
22416;DHT22;12204;50.600;4.608;2023-08-06T22:28:24;23.40;74.80
22416;DHT22;12204;50.600;4.608;2023-08-06T22:33:28;23.40;74.60
22416;DHT22;12204;50.600;4.608;2023-08-06T22:38:32;23.40;74.60
22416;DHT22;12204;50.600;4.608;2023-08-06T22:43:37;23.40;74.90
22416;DHT22;12204;50.600;4.608;2023-08-06T22:48:40;23.40;75.20
22416;DHT22;12204;50.600;4.608;2023-08-06T22:53:44;23.40;76.50
22416;DHT22;12204;50.600;4.608;2023-08-06T22:58:49;23.30;75.90
22416;DHT22;12204;50.600;4.608;2023-08-06T23:03:52;23.40;74.90
22416;DHT22;12204;50.600;4.608;2023-08-06T23:08:56;23.40;74.90
22416;DHT22;12204;50.600;4.608;2023-08-06T23:14:01;23.40;74.90
22416;DHT22;12204;50.600;4.608;2023-08-06T23:19:04;23.40;75.10
22416;DHT22;12204;50.600;4.608;2023-08-06T23:24:08;23.40;75.00
22416;DHT22;12204;50.600;4.608;2023-08-06T23:29:13;23.40;75.10
22416;DHT22;12204;50.600;4.608;2023-08-06T23:34:16;23.40;75.00
22416;DHT22;12204;50.600;4.608;2023-08-06T23:39:20;23.30;75.20
22416;DHT22;12204;50.600;4.608;2023-08-06T23:44:25;23.40;75.20
22416;DHT22;12204;50.600;4.608;2023-08-06T23:49:28;23.40;75.20
22416;DHT22;12204;50.600;4.608;2023-08-06T23:54:32;23.40;75.30
22416;DHT22;12204;50.600;4.608;2023-08-06T23:59:36;23.40;75.70
